sensor_id;sensor_type;location;lat;lon;timestamp;pressure;altitude;pressure_sealevel;temperature;humidity
58919;BME280;44704;50.122;19.932;2022-11-15T00:01:01;98763.41;;;4.28;100.00
58919;BME280;44704;50.122;19.932;2022-11-15T00:03:50;98769.29;;;4.27;100.00
58919;BME280;44704;50.122;19.932;2022-11-15T00:06:37;98764.17;;;4.25;100.00
58919;BME280;44704;50.122;19.932;2022-11-15T00:09:25;98764.83;;;4.24;100.00
58919;BME280;44704;50.122;19.932;2022-11-15T00:12:11;98767.89;;;4.24;100.00
58919;BME280;44704;50.122;19.932;2022-11-15T00:14:56;98759.75;;;4.22;100.00
58919;BME280;44704;50.122;19.932;2022-11-15T00:17:48;98762.98;;;4.20;100.00
58919;BME280;44704;50.122;19.932;2022-11-15T00:20:34;98755.67;;;4.20;100.00
58919;BME280;44704;50.122;19.932;2022-11-15T00:23:20;98753.93;;;4.19;100.00
58919;BME280;44704;50.122;19.932;2022-11-15T00:26:13;98753.75;;;4.16;100.00
58919;BME280;44704;50.122;19.932;2022-11-15T00:28:58;98752.81;;;4.14;99.98
58919;BME280;44704;50.122;19.932;2022-11-15T00:31:44;98747.33;;;4.12;100.00
58919;BME280;44704;50.122;19.932;2022-11-15T00:34:30;98744.21;;;4.12;100.00
58919;BME280;44704;50.122;19.932;2022-11-15T00:37:16;98736.58;;;4.10;100.00
58919;BME280;44704;50.122;19.932;2022-11-15T00:40:01;98737.17;;;4.08;100.00
58919;BME280;44704;50.122;19.932;2022-11-15T00:42:47;98735.09;;;4.05;99.94
58919;BME280;44704;50.122;19.932;2022-11-15T00:45:33;98734.52;;;4.04;100.00
58919;BME280;44704;50.122;19.932;2022-11-15T00:48:28;98728.98;;;4.02;100.00
58919;BME280;44704;50.122;19.932;2022-11-15T00:51:14;98724.73;;;4.00;100.00
58919;BME280;44704;50.122;19.932;2022-11-15T00:54:00;98723.85;;;3.98;100.00
58919;BME280;44704;50.122;19.932;2022-11-15T00:56:46;98721.39;;;3.97;100.00
58919;BME280;44704;50.122;19.932;2022-11-15T00:59:32;98725.94;;;3.95;100.00
58919;BME280;44704;50.122;19.932;2022-11-15T01:02:18;98725.75;;;3.92;100.00
58919;BME280;44704;50.122;19.932;2022-11-15T01:05:04;98725.42;;;3.92;100.00
58919;BME280;44704;50.122;19.932;2022-11-15T01:07:53;98719.95;;;3.91;100.00
58919;BME280;44704;50.122;19.932;2022-11-15T01:10:40;98724.05;;;3.91;100.00
58919;BME280;44704;50.122;19.932;2022-11-15T01:13:26;98722.48;;;3.92;100.00
58919;BME280;44704;50.122;19.932;2022-11-15T01:16:15;98720.44;;;3.93;100.00
58919;BME280;44704;50.122;19.932;2022-11-15T01:19:03;98716.30;;;3.93;100.00
58919;BME280;44704;50.122;19.932;2022-11-15T01:21:51;98712.08;;;3.94;100.00
58919;BME280;44704;50.122;19.932;2022-11-15T01:24:37;98712.13;;;3.95;100.00
58919;BME280;44704;50.122;19.932;2022-11-15T01:27:23;98715.48;;;3.95;100.00
58919;BME280;44704;50.122;19.932;2022-11-15T01:30:09;98712.34;;;3.96;100.00
58919;BME280;44704;50.122;19.932;2022-11-15T01:32:55;98714.42;;;3.95;100.00
58919;BME280;44704;50.122;19.932;2022-11-15T01:35:41;98708.40;;;3.94;100.00
58919;BME280;44704;50.122;19.932;2022-11-15T01:38:27;98707.52;;;3.94;100.00
58919;BME280;44704;50.122;19.932;2022-11-15T01:41:16;98707.95;;;3.91;99.82
58919;BME280;44704;50.122;19.932;2022-11-15T01:47:36;98710.16;;;3.71;99.20
58919;BME280;44704;50.122;19.932;2022-11-15T01:50:27;98705.64;;;3.67;99.67
58919;BME280;44704;50.122;19.932;2022-11-15T01:53:16;98702.23;;;3.65;99.94
58919;BME280;44704;50.122;19.932;2022-11-15T01:56:05;98698.02;;;3.62;99.92
58919;BME280;44704;50.122;19.932;2022-11-15T01:58:53;98693.60;;;3.62;99.97
58919;BME280;44704;50.122;19.932;2022-11-15T02:01:41;98689.95;;;3.61;100.00
58919;BME280;44704;50.122;19.932;2022-11-15T02:04:30;98682.42;;;3.63;100.00
58919;BME280;44704;50.122;19.932;2022-11-15T02:07:18;98683.45;;;3.67;100.00
58919;BME280;44704;50.122;19.932;2022-11-15T02:10:21;98679.63;;;3.71;100.00
58919;BME280;44704;50.122;19.932;2022-11-15T02:13:08;98677.13;;;3.72;100.00
58919;BME280;44704;50.122;19.932;2022-11-15T02:18:57;98681.31;;;3.74;100.00
58919;BME280;44704;50.122;19.932;2022-11-15T02:31:26;98669.95;;;3.82;100.00
58919;BME280;44704;50.122;19.932;2022-11-15T02:34:24;98664.30;;;3.83;100.00
58919;BME280;44704;50.122;19.932;2022-11-15T02:37:17;98668.35;;;3.82;100.00
58919;BME280;44704;50.122;19.932;2022-11-15T02:43:10;98660.29;;;3.78;100.00
58919;BME280;44704;50.122;19.932;2022-11-15T02:46:23;98659.91;;;3.77;99.98
58919;BME280;44704;50.122;19.932;2022-11-15T02:49:33;98655.87;;;3.75;99.89
58919;BME280;44704;50.122;19.932;2022-11-15T02:52:22;98656.58;;;3.73;99.74
58919;BME280;44704;50.122;19.932;2022-11-15T02:55:30;98650.78;;;3.70;99.70
58919;BME280;44704;50.122;19.932;2022-11-15T02:58:24;98646.84;;;3.69;99.78
58919;BME280;44704;50.122;19.932;2022-11-15T03:07:32;98634.42;;;3.66;100.00
58919;BME280;44704;50.122;19.932;2022-11-15T03:10:24;98631.86;;;3.68;100.00
58919;BME280;44704;50.122;19.932;2022-11-15T03:22:04;98635.42;;;3.65;100.00
58919;BME280;44704;50.122;19.932;2022-11-15T03:24:57;98632.64;;;3.66;100.00
58919;BME280;44704;50.122;19.932;2022-11-15T03:27:50;98627.35;;;3.68;100.00
58919;BME280;44704;50.122;19.932;2022-11-15T03:30:37;98624.23;;;3.68;100.00
58919;BME280;44704;50.122;19.932;2022-11-15T03:33:25;98615.94;;;3.66;100.00
58919;BME280;44704;50.122;19.932;2022-11-15T03:36:11;98609.98;;;3.68;100.00
58919;BME280;44704;50.122;19.932;2022-11-15T03:39:01;98611.25;;;3.71;100.00
58919;BME280;44704;50.122;19.932;2022-11-15T03:42:15;98607.90;;;3.73;100.00
58919;BME280;44704;50.122;19.932;2022-11-15T03:48:16;98594.44;;;3.71;100.00
58919;BME280;44704;50.122;19.932;2022-11-15T03:51:04;98593.95;;;3.72;100.00
58919;BME280;44704;50.122;19.932;2022-11-15T03:53:50;98592.61;;;3.73;100.00
58919;BME280;44704;50.122;19.932;2022-11-15T03:56:36;98589.89;;;3.73;100.00
58919;BME280;44704;50.122;19.932;2022-11-15T03:59:22;98585.70;;;3.74;100.00
58919;BME280;44704;50.122;19.932;2022-11-15T04:02:08;98580.58;;;3.74;100.00
58919;BME280;44704;50.122;19.932;2022-11-15T04:04:54;98580.33;;;3.75;100.00
58919;BME280;44704;50.122;19.932;2022-11-15T04:07:40;98576.08;;;3.76;100.00
58919;BME280;44704;50.122;19.932;2022-11-15T04:10:26;98568.63;;;3.78;100.00
58919;BME280;44704;50.122;19.932;2022-11-15T04:13:11;98561.08;;;3.79;100.00
58919;BME280;44704;50.122;19.932;2022-11-15T04:15:57;98555.27;;;3.79;100.00
58919;BME280;44704;50.122;19.932;2022-11-15T04:18:42;98557.08;;;3.81;100.00
58919;BME280;44704;50.122;19.932;2022-11-15T04:21:28;98555.39;;;3.83;100.00
58919;BME280;44704;50.122;19.932;2022-11-15T04:24:33;98549.01;;;3.85;100.00
58919;BME280;44704;50.122;19.932;2022-11-15T04:27:18;98546.92;;;3.85;100.00
58919;BME280;44704;50.122;19.932;2022-11-15T04:30:05;98537.87;;;3.85;100.00
58919;BME280;44704;50.122;19.932;2022-11-15T04:32:51;98538.70;;;3.86;100.00
58919;BME280;44704;50.122;19.932;2022-11-15T04:35:36;98537.61;;;3.85;100.00
58919;BME280;44704;50.122;19.932;2022-11-15T04:38:22;98532.94;;;3.85;100.00
58919;BME280;44704;50.122;19.932;2022-11-15T04:41:10;98532.10;;;3.86;100.00
58919;BME280;44704;50.122;19.932;2022-11-15T04:43:56;98525.84;;;3.85;100.00
58919;BME280;44704;50.122;19.932;2022-11-15T04:46:42;98527.30;;;3.85;100.00
58919;BME280;44704;50.122;19.932;2022-11-15T04:49:27;98524.42;;;3.84;100.00
58919;BME280;44704;50.122;19.932;2022-11-15T04:52:13;98522.11;;;3.82;100.00
58919;BME280;44704;50.122;19.932;2022-11-15T04:54:58;98517.45;;;3.79;100.00
58919;BME280;44704;50.122;19.932;2022-11-15T04:57:44;98521.66;;;3.77;100.00
58919;BME280;44704;50.122;19.932;2022-11-15T05:00:30;98516.80;;;3.79;100.00
58919;BME280;44704;50.122;19.932;2022-11-15T05:03:16;98514.14;;;3.81;100.00
58919;BME280;44704;50.122;19.932;2022-11-15T05:06:20;98510.70;;;3.82;100.00
58919;BME280;44704;50.122;19.932;2022-11-15T05:09:06;98510.13;;;3.83;100.00
58919;BME280;44704;50.122;19.932;2022-11-15T05:11:51;98507.48;;;3.84;100.00
58919;BME280;44704;50.122;19.932;2022-11-15T05:14:37;98503.05;;;3.85;100.00
58919;BME280;44704;50.122;19.932;2022-11-15T05:17:22;98505.34;;;3.86;100.00
58919;BME280;44704;50.122;19.932;2022-11-15T05:20:08;98499.52;;;3.85;100.00
58919;BME280;44704;50.122;19.932;2022-11-15T05:22:54;98496.73;;;3.83;100.00
58919;BME280;44704;50.122;19.932;2022-11-15T05:25:41;98496.94;;;3.79;99.99
58919;BME280;44704;50.122;19.932;2022-11-15T05:28:26;98498.58;;;3.77;100.00
58919;BME280;44704;50.122;19.932;2022-11-15T05:31:14;98493.86;;;3.76;100.00
58919;BME280;44704;50.122;19.932;2022-11-15T05:34:03;98490.38;;;3.75;100.00
58919;BME280;44704;50.122;19.932;2022-11-15T05:36:50;98487.42;;;3.73;100.00
58919;BME280;44704;50.122;19.932;2022-11-15T05:39:35;98488.85;;;3.70;99.98
58919;BME280;44704;50.122;19.932;2022-11-15T05:42:21;98488.70;;;3.66;99.52
58919;BME280;44704;50.122;19.932;2022-11-15T05:45:07;98492.02;;;3.58;99.05
58919;BME280;44704;50.122;19.932;2022-11-15T05:47:55;98494.86;;;3.54;99.54
58919;BME280;44704;50.122;19.932;2022-11-15T05:50:45;98492.38;;;3.53;99.81
58919;BME280;44704;50.122;19.932;2022-11-15T05:53:32;98488.67;;;3.52;99.93
58919;BME280;44704;50.122;19.932;2022-11-15T05:56:18;98488.92;;;3.52;99.90
58919;BME280;44704;50.122;19.932;2022-11-15T05:59:05;98488.63;;;3.50;99.77
58919;BME280;44704;50.122;19.932;2022-11-15T06:01:51;98487.09;;;3.49;99.88
58919;BME280;44704;50.122;19.932;2022-11-15T06:04:36;98488.42;;;3.50;99.92
58919;BME280;44704;50.122;19.932;2022-11-15T06:07:22;98480.10;;;3.49;99.82
58919;BME280;44704;50.122;19.932;2022-11-15T06:10:08;98481.62;;;3.47;99.65
58919;BME280;44704;50.122;19.932;2022-11-15T06:12:58;98477.70;;;3.45;99.70
58919;BME280;44704;50.122;19.932;2022-11-15T06:15:44;98471.66;;;3.44;99.62
58919;BME280;44704;50.122;19.932;2022-11-15T06:18:34;98477.69;;;3.41;99.28
58919;BME280;44704;50.122;19.932;2022-11-15T06:21:20;98472.21;;;3.39;99.24
58919;BME280;44704;50.122;19.932;2022-11-15T06:24:06;98476.88;;;3.38;99.21
58919;BME280;44704;50.122;19.932;2022-11-15T06:26:52;98472.48;;;3.35;99.27
58919;BME280;44704;50.122;19.932;2022-11-15T06:29:38;98471.00;;;3.31;98.50
58919;BME280;44704;50.122;19.932;2022-11-15T06:32:24;98474.50;;;3.27;98.53
58919;BME280;44704;50.122;19.932;2022-11-15T06:35:10;98476.58;;;3.23;98.51
58919;BME280;44704;50.122;19.932;2022-11-15T06:37:57;98478.20;;;3.23;99.01
58919;BME280;44704;50.122;19.932;2022-11-15T06:40:47;98473.77;;;3.23;98.75
58919;BME280;44704;50.122;19.932;2022-11-15T06:43:33;98480.57;;;3.18;98.50
58919;BME280;44704;50.122;19.932;2022-11-15T06:46:19;98482.19;;;3.19;99.03
58919;BME280;44704;50.122;19.932;2022-11-15T06:49:05;98482.40;;;3.20;98.93
58919;BME280;44704;50.122;19.932;2022-11-15T06:51:50;98481.98;;;3.20;99.12
58919;BME280;44704;50.122;19.932;2022-11-15T06:54:36;98478.77;;;3.21;99.16
58919;BME280;44704;50.122;19.932;2022-11-15T06:57:22;98481.97;;;3.23;99.24
58919;BME280;44704;50.122;19.932;2022-11-15T07:00:08;98481.10;;;3.32;99.98
58919;BME280;44704;50.122;19.932;2022-11-15T07:02:54;98473.93;;;3.37;99.90
58919;BME280;44704;50.122;19.932;2022-11-15T07:05:40;98475.20;;;3.39;99.23
58919;BME280;44704;50.122;19.932;2022-11-15T07:08:27;98475.11;;;3.40;99.22
58919;BME280;44704;50.122;19.932;2022-11-15T07:11:14;98475.69;;;3.47;99.86
58919;BME280;44704;50.122;19.932;2022-11-15T07:14:02;98478.70;;;3.54;99.58
58919;BME280;44704;50.122;19.932;2022-11-15T07:16:57;98481.58;;;3.55;98.88
58919;BME280;44704;50.122;19.932;2022-11-15T07:19:44;98476.55;;;3.55;98.32
58919;BME280;44704;50.122;19.932;2022-11-15T07:22:29;98476.79;;;3.56;98.43
58919;BME280;44704;50.122;19.932;2022-11-15T07:25:16;98476.43;;;3.56;97.92
58919;BME280;44704;50.122;19.932;2022-11-15T07:28:03;98470.42;;;3.54;97.83
58919;BME280;44704;50.122;19.932;2022-11-15T07:30:49;98469.91;;;3.53;97.71
58919;BME280;44704;50.122;19.932;2022-11-15T07:33:38;98469.20;;;3.50;97.70
58919;BME280;44704;50.122;19.932;2022-11-15T07:36:24;98466.48;;;3.50;97.53
58919;BME280;44704;50.122;19.932;2022-11-15T07:39:10;98459.43;;;3.52;97.85
58919;BME280;44704;50.122;19.932;2022-11-15T07:41:57;98459.70;;;3.55;98.15
58919;BME280;44704;50.122;19.932;2022-11-15T07:45:02;98462.78;;;3.58;98.06
58919;BME280;44704;50.122;19.932;2022-11-15T07:47:49;98462.73;;;3.57;97.37
58919;BME280;44704;50.122;19.932;2022-11-15T07:50:35;98464.27;;;3.57;97.65
58919;BME280;44704;50.122;19.932;2022-11-15T07:53:21;98460.20;;;3.57;97.13
58919;BME280;44704;50.122;19.932;2022-11-15T07:56:07;98459.86;;;3.53;97.13
58919;BME280;44704;50.122;19.932;2022-11-15T07:58:53;98454.89;;;3.54;97.52
58919;BME280;44704;50.122;19.932;2022-11-15T08:01:39;98447.71;;;3.54;96.99
58919;BME280;44704;50.122;19.932;2022-11-15T08:04:25;98455.11;;;3.49;96.83
58919;BME280;44704;50.122;19.932;2022-11-15T08:07:10;98449.98;;;3.47;97.46
58919;BME280;44704;50.122;19.932;2022-11-15T08:09:56;98447.66;;;3.51;98.07
58919;BME280;44704;50.122;19.932;2022-11-15T08:12:42;98438.25;;;3.55;97.87
58919;BME280;44704;50.122;19.932;2022-11-15T08:15:28;98438.86;;;3.62;98.47
58919;BME280;44704;50.122;19.932;2022-11-15T08:18:15;98433.77;;;3.75;99.18
58919;BME280;44704;50.122;19.932;2022-11-15T08:21:02;98437.33;;;3.85;98.84
58919;BME280;44704;50.122;19.932;2022-11-15T08:23:48;98435.64;;;3.90;98.39
58919;BME280;44704;50.122;19.932;2022-11-15T08:26:34;98434.91;;;3.96;97.90
58919;BME280;44704;50.122;19.932;2022-11-15T08:29:20;98431.66;;;4.05;98.21
58919;BME280;44704;50.122;19.932;2022-11-15T08:32:06;98428.12;;;4.15;98.50
58919;BME280;44704;50.122;19.932;2022-11-15T08:34:53;98425.35;;;4.25;98.26
58919;BME280;44704;50.122;19.932;2022-11-15T08:37:39;98425.98;;;4.34;98.19
58919;BME280;44704;50.122;19.932;2022-11-15T08:40:24;98428.82;;;4.44;98.01
58919;BME280;44704;50.122;19.932;2022-11-15T08:43:12;98424.44;;;4.56;98.57
58919;BME280;44704;50.122;19.932;2022-11-15T08:45:58;98423.20;;;4.67;98.13
58919;BME280;44704;50.122;19.932;2022-11-15T08:48:44;98428.63;;;4.76;97.70
58919;BME280;44704;50.122;19.932;2022-11-15T08:51:29;98428.16;;;4.85;97.55
58919;BME280;44704;50.122;19.932;2022-11-15T08:54:15;98428.15;;;4.93;97.39
58919;BME280;44704;50.122;19.932;2022-11-15T08:57:01;98421.66;;;5.02;97.48
58919;BME280;44704;50.122;19.932;2022-11-15T08:59:46;98423.32;;;5.10;97.33
58919;BME280;44704;50.122;19.932;2022-11-15T09:02:32;98422.84;;;5.14;96.42
58919;BME280;44704;50.122;19.932;2022-11-15T09:05:18;98417.90;;;5.15;96.33
58919;BME280;44704;50.122;19.932;2022-11-15T09:08:04;98416.45;;;5.17;96.02
58919;BME280;44704;50.122;19.932;2022-11-15T09:10:50;98416.02;;;5.20;96.17
58919;BME280;44704;50.122;19.932;2022-11-15T09:13:36;98413.23;;;5.25;96.37
58919;BME280;44704;50.122;19.932;2022-11-15T09:16:22;98411.55;;;5.33;96.37
58919;BME280;44704;50.122;19.932;2022-11-15T09:19:08;98406.29;;;5.42;96.88
58919;BME280;44704;50.122;19.932;2022-11-15T09:21:54;98406.29;;;5.53;97.03
58919;BME280;44704;50.122;19.932;2022-11-15T09:24:39;98398.80;;;5.62;96.79
58919;BME280;44704;50.122;19.932;2022-11-15T09:27:29;98397.88;;;5.73;96.51
58919;BME280;44704;50.122;19.932;2022-11-15T09:30:15;98396.57;;;5.78;95.98
58919;BME280;44704;50.122;19.932;2022-11-15T09:33:09;98399.34;;;5.83;95.91
58919;BME280;44704;50.122;19.932;2022-11-15T09:36:00;98387.23;;;5.91;95.87
58919;BME280;44704;50.122;19.932;2022-11-15T09:38:47;98387.81;;;5.97;95.54
58919;BME280;44704;50.122;19.932;2022-11-15T09:47:48;98383.48;;;6.16;95.15
58919;BME280;44704;50.122;19.932;2022-11-15T09:50:42;98382.83;;;6.21;94.83
58919;BME280;44704;50.122;19.932;2022-11-15T09:56:22;98379.49;;;6.28;94.56
58919;BME280;44704;50.122;19.932;2022-11-15T10:01:42;98363.48;;;6.33;93.90
58919;BME280;44704;50.122;19.932;2022-11-15T10:04:11;98365.55;;;6.35;94.34
58919;BME280;44704;50.122;19.932;2022-11-15T10:06:45;98362.58;;;6.38;94.16
58919;BME280;44704;50.122;19.932;2022-11-15T10:09:17;98356.90;;;6.38;93.90
58919;BME280;44704;50.122;19.932;2022-11-15T10:11:46;98352.56;;;6.41;94.02
58919;BME280;44704;50.122;19.932;2022-11-15T10:14:25;98349.36;;;6.44;93.60
58919;BME280;44704;50.122;19.932;2022-11-15T10:24:46;98333.98;;;6.56;93.55
58919;BME280;44704;50.122;19.932;2022-11-15T10:27:16;98329.36;;;6.62;93.79
58919;BME280;44704;50.122;19.932;2022-11-15T10:29:48;98329.48;;;6.70;93.91
58919;BME280;44704;50.122;19.932;2022-11-15T10:32:18;98323.67;;;6.76;93.59
58919;BME280;44704;50.122;19.932;2022-11-15T10:34:47;98319.02;;;6.81;93.16
58919;BME280;44704;50.122;19.932;2022-11-15T10:37:14;98318.40;;;6.88;93.58
58919;BME280;44704;50.122;19.932;2022-11-15T10:40:12;98312.02;;;6.97;94.01
58919;BME280;44704;50.122;19.932;2022-11-15T10:42:41;98307.80;;;7.05;93.75
58919;BME280;44704;50.122;19.932;2022-11-15T10:45:38;98301.13;;;7.10;93.41
58919;BME280;44704;50.122;19.932;2022-11-15T10:50:43;98295.23;;;7.25;93.47
58919;BME280;44704;50.122;19.932;2022-11-15T10:53:27;98291.81;;;7.32;93.60
58919;BME280;44704;50.122;19.932;2022-11-15T10:55:58;98284.05;;;7.39;93.17
58919;BME280;44704;50.122;19.932;2022-11-15T10:58:31;98281.98;;;7.44;92.60
58919;BME280;44704;50.122;19.932;2022-11-15T11:01:19;98271.77;;;7.48;92.62
58919;BME280;44704;50.122;19.932;2022-11-15T11:04:08;98266.34;;;7.57;92.69
58919;BME280;44704;50.122;19.932;2022-11-15T11:06:49;98262.46;;;7.66;92.46
58919;BME280;44704;50.122;19.932;2022-11-15T11:09:39;98260.52;;;7.73;92.69
58919;BME280;44704;50.122;19.932;2022-11-15T11:12:11;98256.21;;;7.80;92.02
58919;BME280;44704;50.122;19.932;2022-11-15T11:14:39;98259.33;;;7.85;91.52
58919;BME280;44704;50.122;19.932;2022-11-15T11:18:28;98255.64;;;7.90;91.48
58919;BME280;44704;50.122;19.932;2022-11-15T11:20:26;98258.52;;;7.96;91.31
58919;BME280;44704;50.122;19.932;2022-11-15T11:23:30;98251.75;;;8.03;91.36
58919;BME280;44704;50.122;19.932;2022-11-15T11:28:56;98249.21;;;8.21;91.41
58919;BME280;44704;50.122;19.932;2022-11-15T11:31:43;98248.09;;;8.32;90.84
58919;BME280;44704;50.122;19.932;2022-11-15T11:51:25;98216.02;;;8.90;89.83
58919;BME280;44704;50.122;19.932;2022-11-15T11:54:09;98213.56;;;8.98;89.49
58919;BME280;44704;50.122;19.932;2022-11-15T11:56:41;98203.34;;;9.05;89.11
58919;BME280;44704;50.122;19.932;2022-11-15T11:59:16;98198.63;;;9.12;89.15
58919;BME280;44704;50.122;19.932;2022-11-15T12:01:46;98196.23;;;9.19;88.87
58919;BME280;44704;50.122;19.932;2022-11-15T12:04:21;98191.12;;;9.25;88.95
58919;BME280;44704;50.122;19.932;2022-11-15T12:07:01;98188.73;;;9.35;88.91
58919;BME280;44704;50.122;19.932;2022-11-15T12:10:01;98186.86;;;9.43;88.55
58919;BME280;44704;50.122;19.932;2022-11-15T12:15:24;98182.81;;;9.59;87.94
58919;BME280;44704;50.122;19.932;2022-11-15T12:17:55;98185.46;;;9.65;87.44
58919;BME280;44704;50.122;19.932;2022-11-15T12:20:25;98186.98;;;9.72;87.25
58919;BME280;44704;50.122;19.932;2022-11-15T12:23:11;98185.39;;;9.77;87.12
58919;BME280;44704;50.122;19.932;2022-11-15T12:26:02;98182.58;;;9.81;86.87
58919;BME280;44704;50.122;19.932;2022-11-15T12:28:42;98174.70;;;9.77;86.82
58919;BME280;44704;50.122;19.932;2022-11-15T12:31:22;98172.39;;;9.74;87.00
58919;BME280;44704;50.122;19.932;2022-11-15T12:33:55;98171.66;;;9.69;86.55
58919;BME280;44704;50.122;19.932;2022-11-15T12:38:58;98168.34;;;9.56;86.04
58919;BME280;44704;50.122;19.932;2022-11-15T12:41:33;98164.88;;;9.47;86.07
58919;BME280;44704;50.122;19.932;2022-11-15T12:44:03;98166.74;;;9.40;86.01
58919;BME280;44704;50.122;19.932;2022-11-15T13:02:20;98145.34;;;8.89;87.26
58919;BME280;44704;50.122;19.932;2022-11-15T13:04:49;98141.10;;;8.84;87.46
58919;BME280;44704;50.122;19.932;2022-11-15T13:25:36;98135.75;;;8.50;88.77
58919;BME280;44704;50.122;19.932;2022-11-15T13:28:19;98135.14;;;8.47;88.86
58919;BME280;44704;50.122;19.932;2022-11-15T13:35:57;98131.00;;;8.40;89.42
58919;BME280;44704;50.122;19.932;2022-11-15T13:40:51;98133.34;;;8.37;89.86
58919;BME280;44704;50.122;19.932;2022-11-15T13:43:32;98126.31;;;8.36;90.05
58919;BME280;44704;50.122;19.932;2022-11-15T13:48:46;98112.73;;;8.32;89.96
58919;BME280;44704;50.122;19.932;2022-11-15T13:51:31;98106.70;;;8.32;90.33
58919;BME280;44704;50.122;19.932;2022-11-15T13:54:13;98107.57;;;8.32;90.32
58919;BME280;44704;50.122;19.932;2022-11-15T13:56:46;98108.60;;;8.32;90.44
58919;BME280;44704;50.122;19.932;2022-11-15T14:01:49;98103.73;;;8.31;90.48
58919;BME280;44704;50.122;19.932;2022-11-15T14:04:20;98102.02;;;8.29;90.44
58919;BME280;44704;50.122;19.932;2022-11-15T14:06:51;98096.70;;;8.26;90.55
58919;BME280;44704;50.122;19.932;2022-11-15T14:09:25;98094.13;;;8.26;90.73
58919;BME280;44704;50.122;19.932;2022-11-15T14:11:56;98093.64;;;8.25;90.99
58919;BME280;44704;50.122;19.932;2022-11-15T14:14:25;98089.05;;;8.26;91.12
58919;BME280;44704;50.122;19.932;2022-11-15T14:16:55;98087.84;;;8.25;90.94
58919;BME280;44704;50.122;19.932;2022-11-15T14:24:39;98091.52;;;8.22;91.44
58919;BME280;44704;50.122;19.932;2022-11-15T14:27:22;98091.38;;;8.21;91.52
58919;BME280;44704;50.122;19.932;2022-11-15T14:29:50;98077.95;;;8.19;91.66
58919;BME280;44704;50.122;19.932;2022-11-15T14:34:49;98073.66;;;8.14;91.87
58919;BME280;44704;50.122;19.932;2022-11-15T14:37:26;98073.89;;;8.12;92.27
58919;BME280;44704;50.122;19.932;2022-11-15T14:39:54;98067.57;;;8.11;92.28
58919;BME280;44704;50.122;19.932;2022-11-15T14:42:23;98068.61;;;8.09;92.24
58919;BME280;44704;50.122;19.932;2022-11-15T14:44:51;98065.20;;;8.07;92.43
58919;BME280;44704;50.122;19.932;2022-11-15T14:47:18;98064.23;;;8.05;92.35
58919;BME280;44704;50.122;19.932;2022-11-15T14:49:46;98062.35;;;8.03;92.55
58919;BME280;44704;50.122;19.932;2022-11-15T14:52:31;98058.98;;;8.00;92.60
58919;BME280;44704;50.122;19.932;2022-11-15T14:55:13;98055.94;;;7.96;92.51
58919;BME280;44704;50.122;19.932;2022-11-15T14:57:42;98055.02;;;7.93;92.81
58919;BME280;44704;50.122;19.932;2022-11-15T15:00:09;98054.14;;;7.89;93.00
58919;BME280;44704;50.122;19.932;2022-11-15T15:02:41;98056.95;;;7.87;92.99
58919;BME280;44704;50.122;19.932;2022-11-15T15:07:51;98050.36;;;7.79;93.14
58919;BME280;44704;50.122;19.932;2022-11-15T15:10:21;98045.09;;;7.76;93.37
58919;BME280;44704;50.122;19.932;2022-11-15T15:12:48;98045.08;;;7.74;93.34
58919;BME280;44704;50.122;19.932;2022-11-15T15:15:21;98045.27;;;7.73;93.53
58919;BME280;44704;50.122;19.932;2022-11-15T15:17:48;98046.66;;;7.72;93.25
58919;BME280;44704;50.122;19.932;2022-11-15T15:20:15;98043.98;;;7.71;93.34
58919;BME280;44704;50.122;19.932;2022-11-15T15:22:44;98043.73;;;7.69;93.29
58919;BME280;44704;50.122;19.932;2022-11-15T15:27:46;98043.25;;;7.67;93.63
58919;BME280;44704;50.122;19.932;2022-11-15T15:30:13;98040.14;;;7.69;93.74
58919;BME280;44704;50.122;19.932;2022-11-15T15:32:40;98041.31;;;7.68;93.85
58919;BME280;44704;50.122;19.932;2022-11-15T15:35:07;98038.38;;;7.67;93.76
58919;BME280;44704;50.122;19.932;2022-11-15T15:37:37;98035.44;;;7.67;93.73
58919;BME280;44704;50.122;19.932;2022-11-15T15:40:11;98033.91;;;7.66;94.05
58919;BME280;44704;50.122;19.932;2022-11-15T15:42:39;98035.64;;;7.66;93.77
58919;BME280;44704;50.122;19.932;2022-11-15T15:45:08;98031.52;;;7.66;93.84
58919;BME280;44704;50.122;19.932;2022-11-15T15:47:35;98029.18;;;7.66;93.74
58919;BME280;44704;50.122;19.932;2022-11-15T15:50:04;98030.89;;;7.65;93.62
58919;BME280;44704;50.122;19.932;2022-11-15T15:52:39;98033.06;;;7.63;93.74
58919;BME280;44704;50.122;19.932;2022-11-15T15:55:06;98034.44;;;7.61;93.61
58919;BME280;44704;50.122;19.932;2022-11-15T15:57:33;98031.73;;;7.61;93.65
58919;BME280;44704;50.122;19.932;2022-11-15T16:00:00;98032.80;;;7.61;93.51
58919;BME280;44704;50.122;19.932;2022-11-15T16:02:27;98031.09;;;7.59;93.25
58919;BME280;44704;50.122;19.932;2022-11-15T16:04:54;98029.77;;;7.58;93.58
58919;BME280;44704;50.122;19.932;2022-11-15T16:07:22;98030.17;;;7.57;93.47
58919;BME280;44704;50.122;19.932;2022-11-15T16:09:50;98029.06;;;7.56;93.58
58919;BME280;44704;50.122;19.932;2022-11-15T16:12:31;98026.93;;;7.56;94.00
58919;BME280;44704;50.122;19.932;2022-11-15T16:14:58;98022.67;;;7.56;94.28
58919;BME280;44704;50.122;19.932;2022-11-15T16:17:30;98020.55;;;7.56;94.19
58919;BME280;44704;50.122;19.932;2022-11-15T16:19:58;98018.00;;;7.55;94.12
58919;BME280;44704;50.122;19.932;2022-11-15T16:22:25;98020.09;;;7.54;94.01
58919;BME280;44704;50.122;19.932;2022-11-15T16:24:52;98019.70;;;7.53;94.24
58919;BME280;44704;50.122;19.932;2022-11-15T16:27:20;98014.86;;;7.53;94.33
58919;BME280;44704;50.122;19.932;2022-11-15T16:29:48;98017.21;;;7.52;94.31
58919;BME280;44704;50.122;19.932;2022-11-15T16:32:15;98017.91;;;7.51;94.52
58919;BME280;44704;50.122;19.932;2022-11-15T16:34:42;98015.84;;;7.51;94.56
58919;BME280;44704;50.122;19.932;2022-11-15T16:37:22;98014.91;;;7.51;94.59
58919;BME280;44704;50.122;19.932;2022-11-15T16:39:49;98018.30;;;7.52;94.93
58919;BME280;44704;50.122;19.932;2022-11-15T16:42:17;98011.48;;;7.53;95.04